Aviation Digital Data Service (ADDS)

Output produced by METARs form (0858 UTC 26 January 2020)
found at http://www.aviationweather.gov/metar/data/
 
METAR text: GUCY 260800Z 00000KT 3000 HZ NSC 25/19 Q1013 NOSIG
Conditions at: GUCY (CONAKRY/GBESSIA , GN) observed 0800 UTC 26 January 2020
Temperature: 25.0°C (77°F)
Dewpoint: 19.0°C (66°F) [RH = 69%]
Pressure (altimeter): 29.91 inches Hg (1013.0 mb)
Winds: calm
Visibility: 1.86 miles (2.99 km)
Ceiling: at least 12,000 feet AGL
Clouds: sky clear below 12,000 feet AGL
Weather: HZ  (haze)

METAR text: GUCY 260700Z 00000KT 3000 HZ BKN110 25/18 Q1012 NOSIG
Conditions at: GUCY (CONAKRY/GBESSIA , GN) observed 0700 UTC 26 January 2020
Temperature: 25.0°C (77°F)
Dewpoint: 18.0°C (64°F) [RH = 65%]
Pressure (altimeter): 29.88 inches Hg (1012.0 mb)
Winds: calm
Visibility: 1.86 miles (2.99 km)
Ceiling: 11000 feet AGL
Clouds: broken clouds at 11000 feet AGL
Weather: HZ  (haze)

METAR text: GUCY 260600Z 00000KT 3000 HZ NSC 24/19 Q1012 NOSIG
Conditions at: GUCY (CONAKRY/GBESSIA , GN) observed 0600 UTC 26 January 2020
Temperature: 24.0°C (75°F)
Dewpoint: 19.0°C (66°F) [RH = 74%]
Pressure (altimeter): 29.88 inches Hg (1012.0 mb)
Winds: calm
Visibility: 1.86 miles (2.99 km)
Ceiling: at least 12,000 feet AGL
Clouds: sky clear below 12,000 feet AGL
Weather: HZ  (haze)

METAR text: GUCY 260500Z 0000KT 3000 HZ NSC 25/18 Q1012 NOSIG
Conditions at: GUCY (CONAKRY/GBESSIA , GN) observed 0500 UTC 26 January 2020
Temperature: 25.0°C (77°F)
Dewpoint: 18.0°C (64°F) [RH = 65%]
Pressure (altimeter): 29.88 inches Hg (1012.0 mb)
Winds: missing
Visibility: 1.86 miles (2.99 km)
Ceiling: at least 12,000 feet AGL
Clouds: sky clear below 12,000 feet AGL
Weather: HZ  (haze)

METAR text: GUCY 260400Z 36004KT 3000 HZ NSC 27/17 Q1012 NOSIG
Conditions at: GUCY (CONAKRY/GBESSIA , GN) observed 0400 UTC 26 January 2020
Temperature: 27.0°C (81°F)
Dewpoint: 17.0°C (63°F) [RH = 54%]
Pressure (altimeter): 29.88 inches Hg (1012.0 mb)
Winds: from the N (360 degrees) at 5 MPH (4 knots; 2.1 m/s)
Visibility: 1.86 miles (2.99 km)
Ceiling: at least 12,000 feet AGL
Clouds: sky clear below 12,000 feet AGL
Weather: HZ  (haze)

METAR text: GUCY 260300Z 36004KT 3000 HZ NSC 27/17 Q1012 NOSIG
Conditions at: GUCY (CONAKRY/GBESSIA , GN) observed 0300 UTC 26 January 2020
Temperature: 27.0°C (81°F)
Dewpoint: 17.0°C (63°F) [RH = 54%]
Pressure (altimeter): 29.88 inches Hg (1012.0 mb)
Winds: from the N (360 degrees) at 5 MPH (4 knots; 2.1 m/s)
Visibility: 1.86 miles (2.99 km)
Ceiling: at least 12,000 feet AGL
Clouds: sky clear below 12,000 feet AGL
Weather: HZ  (haze)

METAR text: GUCY 252100Z 32004KT 3000 HZ NSC 28/23 Q1012 NOSIG
Conditions at: GUCY (CONAKRY/GBESSIA , GN) observed 2100 UTC 25 January 2020
Temperature: 28.0°C (82°F)
Dewpoint: 23.0°C (73°F) [RH = 74%]
Pressure (altimeter): 29.88 inches Hg (1012.0 mb)
Winds: from the NW (320 degrees) at 5 MPH (4 knots; 2.1 m/s)
Visibility: 1.86 miles (2.99 km)
Ceiling: at least 12,000 feet AGL
Clouds: sky clear below 12,000 feet AGL
Weather: HZ  (haze)

METAR text: GUCY 251900Z 26006KT 2000 HZ NSC 29/23 Q1010 NOSIG
Conditions at: GUCY (CONAKRY/GBESSIA , GN) observed 1900 UTC 25 January 2020
Temperature: 29.0°C (84°F)
Dewpoint: 23.0°C (73°F) [RH = 70%]
Pressure (altimeter): 29.82 inches Hg (1010.0 mb)
Winds: from the W (260 degrees) at 7 MPH (6 knots; 3.1 m/s)
Visibility: 1.24 miles (2.00 km)
Ceiling: at least 12,000 feet AGL
Clouds: sky clear below 12,000 feet AGL
Weather: HZ  (haze)

METAR text: GUCY 251800Z 26006KT 2000 HZ NSC 31/19 Q1009 NOSIG
Conditions at: GUCY (CONAKRY/GBESSIA , GN) observed 1800 UTC 25 January 2020
Temperature: 31.0°C (88°F)
Dewpoint: 19.0°C (66°F) [RH = 49%]
Pressure (altimeter): 29.79 inches Hg (1009.0 mb)
Winds: from the W (260 degrees) at 7 MPH (6 knots; 3.1 m/s)
Visibility: 1.24 miles (2.00 km)
Ceiling: at least 12,000 feet AGL
Clouds: sky clear below 12,000 feet AGL
Weather: HZ  (haze)

METAR text: GUCY 251700Z 28006KT 2000 HZ NSC 32/19 Q1009 NOSIG
Conditions at: GUCY (CONAKRY/GBESSIA , GN) observed 1700 UTC 25 January 2020
Temperature: 32.0°C (90°F)
Dewpoint: 19.0°C (66°F) [RH = 46%]
Pressure (altimeter): 29.79 inches Hg (1009.0 mb)
Winds: from the W (280 degrees) at 7 MPH (6 knots; 3.1 m/s)
Visibility: 1.24 miles (2.00 km)
Ceiling: at least 12,000 feet AGL
Clouds: sky clear below 12,000 feet AGL
Weather: HZ  (haze)

METAR text: GUCY 251600Z 28006KT 2000 HZ NSC 33/15 Q1009 NOSIG
Conditions at: GUCY (CONAKRY/GBESSIA , GN) observed 1600 UTC 25 January 2020
Temperature: 33.0°C (91°F)
Dewpoint: 15.0°C (59°F) [RH = 34%]
Pressure (altimeter): 29.79 inches Hg (1009.0 mb)
Winds: from the W (280 degrees) at 7 MPH (6 knots; 3.1 m/s)
Visibility: 1.24 miles (2.00 km)
Ceiling: at least 12,000 feet AGL
Clouds: sky clear below 12,000 feet AGL
Weather: HZ  (haze)

METAR text: GUCY 251500Z 28006KT 2000 HZ NSC 34/18 Q1010 NOSIG
Conditions at: GUCY (CONAKRY/GBESSIA , GN) observed 1500 UTC 25 January 2020
Temperature: 34.0°C (93°F)
Dewpoint: 18.0°C (64°F) [RH = 39%]
Pressure (altimeter): 29.82 inches Hg (1010.0 mb)
Winds: from the W (280 degrees) at 7 MPH (6 knots; 3.1 m/s)
Visibility: 1.24 miles (2.00 km)
Ceiling: at least 12,000 feet AGL
Clouds: sky clear below 12,000 feet AGL
Weather: HZ  (haze)

METAR text: GUCY 251400Z 19006KT 2000 HZ NSC 34/12 Q1011 NOSIG
Conditions at: GUCY (CONAKRY/GBESSIA , GN) observed 1400 UTC 25 January 2020
Temperature: 34.0°C (93°F)
Dewpoint: 12.0°C (54°F) [RH = 26%]
Pressure (altimeter): 29.85 inches Hg (1011.0 mb)
Winds: from the S (190 degrees) at 7 MPH (6 knots; 3.1 m/s)
Visibility: 1.24 miles (2.00 km)
Ceiling: at least 12,000 feet AGL
Clouds: sky clear below 12,000 feet AGL
Weather: HZ  (haze)

METAR text: GUCY 251300Z 14006KT 2000 HZ NSC 33/11 Q1012 NOSIG
Conditions at: GUCY (CONAKRY/GBESSIA , GN) observed 1300 UTC 25 January 2020
Temperature: 33.0°C (91°F)
Dewpoint: 11.0°C (52°F) [RH = 26%]
Pressure (altimeter): 29.88 inches Hg (1012.0 mb)
Winds: from the SE (140 degrees) at 7 MPH (6 knots; 3.1 m/s)
Visibility: 1.24 miles (2.00 km)
Ceiling: at least 12,000 feet AGL
Clouds: sky clear below 12,000 feet AGL
Weather: HZ  (haze)

METAR text: GUCY 251200Z 28006KT 2000 HZ NSC 32/10 Q1013 NOSIG
Conditions at: GUCY (CONAKRY/GBESSIA , GN) observed 1200 UTC 25 January 2020
Temperature: 32.0°C (90°F)
Dewpoint: 10.0°C (50°F) [RH = 26%]
Pressure (altimeter): 29.91 inches Hg (1013.0 mb)
Winds: from the W (280 degrees) at 7 MPH (6 knots; 3.1 m/s)
Visibility: 1.24 miles (2.00 km)
Ceiling: at least 12,000 feet AGL
Clouds: sky clear below 12,000 feet AGL
Weather: HZ  (haze)

METAR text: GUCY 251100Z 10006KT 2000 HZ NSC 29/19 Q1013 NOSIG
Conditions at: GUCY (CONAKRY/GBESSIA , GN) observed 1100 UTC 25 January 2020
Temperature: 29.0°C (84°F)
Dewpoint: 19.0°C (66°F) [RH = 55%]
Pressure (altimeter): 29.91 inches Hg (1013.0 mb)
Winds: from the E (100 degrees) at 7 MPH (6 knots; 3.1 m/s)
Visibility: 1.24 miles (2.00 km)
Ceiling: at least 12,000 feet AGL
Clouds: sky clear below 12,000 feet AGL
Weather: HZ  (haze)

METAR text: GUCY 251000Z 06006KT 2000 HZ NSC 28/20 Q1013 NOSIG
Conditions at: GUCY (CONAKRY/GBESSIA , GN) observed 1000 UTC 25 January 2020
Temperature: 28.0°C (82°F)
Dewpoint: 20.0°C (68°F) [RH = 62%]
Pressure (altimeter): 29.91 inches Hg (1013.0 mb)
Winds: from the ENE (60 degrees) at 7 MPH (6 knots; 3.1 m/s)
Visibility: 1.24 miles (2.00 km)
Ceiling: at least 12,000 feet AGL
Clouds: sky clear below 12,000 feet AGL
Weather: HZ  (haze)

METAR text: GUCY 250700Z 09008KT 2000 HZ NSC 25/20 Q1012 NOSIG
Conditions at: GUCY (CONAKRY/GBESSIA , GN) observed 0700 UTC 25 January 2020
Temperature: 25.0°C (77°F)
Dewpoint: 20.0°C (68°F) [RH = 74%]
Pressure (altimeter): 29.88 inches Hg (1012.0 mb)
Winds: from the E (90 degrees) at 9 MPH (8 knots; 4.1 m/s)
Visibility: 1.24 miles (2.00 km)
Ceiling: at least 12,000 feet AGL
Clouds: sky clear below 12,000 feet AGL
Weather: HZ  (haze)

Forecast for: GUCY (CONAKRY/GBESSIA , GN)
Text: TAF GUCY 252300Z 2600/2706 26006KT 5000 HZ FEW015
Forecast period: 0000 UTC 26 January 2020 to 0600 UTC 27 January 2020
Forecast type: FROM: standard forecast or significant change
Winds: from the W (260 degrees) at 7 MPH (6 knots; 3.1 m/s)
Visibility: 3 miles (5 km)
Ceiling: at least 12,000 feet AGL
Clouds: few clouds at 1500 feet AGL
Weather: HZ  (haze)
Text: TEMPO 2602/2608 VRB02KT 4000 BR NSC
Forecast period: 0200 to 0800 UTC 26 January 2020
Forecast type: TEMPORARY: The following changes expected for less than half the time period
Winds: variable direction winds at 2 MPH (2 knots; 1.0 m/s)
Visibility: 2.49 miles (4.01 km)
Ceiling: unknown
Clouds: missing
Weather: BR  (mist)
Text: TEMPO 2615/2620 4000 HZ
Forecast period: 1500 to 2000 UTC 26 January 2020
Forecast type: TEMPORARY: The following changes expected for less than half the time period
Visibility: 2.49 miles (4.01 km)
Ceiling: unknown
Clouds: missing
Weather: HZ  (haze)